createdAt,value
2023-05-18T00:00:00.260Z,25.01
2023-05-18T00:01:00.341Z,25.01
2023-05-18T00:02:00.358Z,25.01
2023-05-18T00:03:00.480Z,24.99
2023-05-18T00:04:00.481Z,25.01
2023-05-18T00:05:00.519Z,24.99
2023-05-18T00:06:00.616Z,25.01
2023-05-18T00:07:00.641Z,24.99
2023-05-18T00:08:00.651Z,24.99
2023-05-18T00:09:00.750Z,24.99
2023-05-18T00:10:00.870Z,24.99
2023-05-18T00:11:00.849Z,24.99
2023-05-18T00:12:00.898Z,24.98
2023-05-18T00:13:00.952Z,24.98
2023-05-18T00:14:01.002Z,24.98
2023-05-18T00:15:01.082Z,24.98
2023-05-18T00:16:01.185Z,24.99
2023-05-18T00:17:01.177Z,24.99
2023-05-18T00:18:01.288Z,24.99
2023-05-18T00:19:01.308Z,24.97
2023-05-18T00:20:01.351Z,24.98
2023-05-18T00:21:01.407Z,24.99
2023-05-18T00:22:01.452Z,24.98
2023-05-18T00:23:01.484Z,24.97
2023-05-18T00:24:01.564Z,24.97
2023-05-18T00:25:01.641Z,24.97
2023-05-18T00:26:01.653Z,24.95
2023-05-18T00:27:01.716Z,24.98
2023-05-18T00:28:01.790Z,24.98
2023-05-18T00:29:01.844Z,24.98
2023-05-18T00:30:01.897Z,24.97
2023-05-18T00:31:01.933Z,24.95
2023-05-18T00:32:02.109Z,24.94
2023-05-18T00:33:02.223Z,24.95
2023-05-18T00:34:02.095Z,24.94
2023-05-18T00:35:02.186Z,24.95
2023-05-18T00:36:02.243Z,24.95
2023-05-18T00:37:02.308Z,24.98
2023-05-18T00:38:02.392Z,24.98
2023-05-18T00:39:02.456Z,24.95
2023-05-18T00:40:02.512Z,24.97
2023-05-18T00:41:02.541Z,24.97
2023-05-18T00:42:02.640Z,24.95
2023-05-18T00:43:02.685Z,24.94
2023-05-18T00:44:02.721Z,24.94
2023-05-18T00:45:02.810Z,24.95
2023-05-18T00:46:02.891Z,24.95
2023-05-18T00:47:02.919Z,24.97
2023-05-18T00:48:03.014Z,24.91
2023-05-18T00:49:03.037Z,24.95
2023-05-18T00:50:03.101Z,24.94
2023-05-18T00:51:03.146Z,24.95
2023-05-18T00:52:03.182Z,24.94
2023-05-18T00:53:03.270Z,24.92
2023-05-18T00:54:03.318Z,24.95
2023-05-18T00:55:03.385Z,24.92
2023-05-18T00:56:03.439Z,24.92
2023-05-18T00:57:03.482Z,24.94
2023-05-18T00:58:03.612Z,24.94
2023-05-18T00:59:03.637Z,24.94
2023-05-18T01:00:03.677Z,24.95
2023-05-18T01:01:03.735Z,24.92
2023-05-18T01:02:03.819Z,24.92
2023-05-18T01:03:04.076Z,24.92
2023-05-18T01:04:03.903Z,24.92
2023-05-18T01:05:03.955Z,24.91
2023-05-18T01:06:04.243Z,24.91
2023-05-18T01:07:04.108Z,24.94
2023-05-18T01:08:04.151Z,24.92
2023-05-18T01:09:04.244Z,24.91
2023-05-18T01:10:04.300Z,24.91
2023-05-18T01:11:04.407Z,24.89
2023-05-18T01:12:04.390Z,24.89
2023-05-18T01:13:04.455Z,24.91
2023-05-18T01:14:04.528Z,24.91
2023-05-18T01:15:04.660Z,24.92
2023-05-18T01:16:04.641Z,24.91
2023-05-18T01:17:04.714Z,24.88
2023-05-18T01:18:04.977Z,24.89
2023-05-18T01:19:04.958Z,24.89
2023-05-18T01:20:04.864Z,24.92
2023-05-18T01:21:04.920Z,24.88
2023-05-18T01:22:05.009Z,24.89
2023-05-18T01:23:05.042Z,24.91
2023-05-18T01:24:05.106Z,24.91
2023-05-18T01:25:05.177Z,24.88
2023-05-18T01:26:05.237Z,24.88
2023-05-18T01:27:05.280Z,24.89
2023-05-18T01:28:05.379Z,24.92
2023-05-18T01:29:05.442Z,24.88
2023-05-18T01:30:05.473Z,24.89
2023-05-18T01:31:05.617Z,24.89
2023-05-18T01:32:05.613Z,24.89
2023-05-18T01:33:05.849Z,24.88
2023-05-18T01:34:05.739Z,24.87
2023-05-18T01:35:05.803Z,24.88
2023-05-18T01:36:05.854Z,24.87
2023-05-18T01:37:05.927Z,24.87
2023-05-18T01:38:06.003Z,24.87
2023-05-18T01:39:06.049Z,24.89
2023-05-18T01:40:06.106Z,24.88
2023-05-18T01:41:06.167Z,24.87
2023-05-18T01:42:06.250Z,24.88
2023-05-18T01:43:06.258Z,24.89
2023-05-18T01:44:06.334Z,24.88
2023-05-18T01:45:06.434Z,24.88
2023-05-18T01:46:06.566Z,24.85
2023-05-18T01:47:06.536Z,24.85
2023-05-18T01:48:06.646Z,24.87
2023-05-18T01:49:06.665Z,24.88
2023-05-18T01:50:06.682Z,24.89
2023-05-18T01:51:06.766Z,24.85
2023-05-18T01:52:06.842Z,24.85
2023-05-18T01:53:06.896Z,24.85
2023-05-18T01:54:06.982Z,24.87
2023-05-18T01:55:07.047Z,24.85
2023-05-18T01:56:07.094Z,24.87
2023-05-18T01:57:07.138Z,24.87
2023-05-18T01:58:07.199Z,24.85
2023-05-18T01:59:07.297Z,24.88
2023-05-18T02:00:07.337Z,24.87
2023-05-18T02:01:07.359Z,24.85
2023-05-18T02:02:07.506Z,24.85
2023-05-18T02:03:07.529Z,24.87
2023-05-18T02:04:07.585Z,24.85
2023-05-18T02:05:07.725Z,24.85
2023-05-18T02:06:07.690Z,24.85
2023-05-18T02:07:07.763Z,24.85
2023-05-18T02:08:07.830Z,24.85
2023-05-18T02:09:07.881Z,24.84
2023-05-18T02:10:07.944Z,24.84
2023-05-18T02:11:07.995Z,24.87
2023-05-18T02:12:08.061Z,24.82
2023-05-18T02:13:08.119Z,24.82
2023-05-18T02:14:08.160Z,24.85
2023-05-18T02:15:08.260Z,24.82
2023-05-18T02:16:08.341Z,24.84
2023-05-18T02:17:08.348Z,24.84
2023-05-18T02:18:08.571Z,24.84
2023-05-18T02:19:08.573Z,24.85
2023-05-18T02:20:08.537Z,24.82
2023-05-18T02:21:08.665Z,24.82
2023-05-18T02:22:08.688Z,24.81
2023-05-18T02:23:08.710Z,24.81
2023-05-18T02:24:08.766Z,24.82
2023-05-18T02:25:08.833Z,24.82
2023-05-18T02:26:08.853Z,24.81
2023-05-18T02:27:08.928Z,24.82
2023-05-18T02:28:09.026Z,24.82
2023-05-18T02:29:09.059Z,24.81
2023-05-18T02:30:09.150Z,24.82
2023-05-18T02:31:09.145Z,24.81
2023-05-18T02:32:09.260Z,24.81
2023-05-18T02:33:09.326Z,24.82
2023-05-18T02:34:09.260Z,24.79
2023-05-18T02:35:09.288Z,24.81
2023-05-18T02:36:09.320Z,24.81
2023-05-18T02:37:09.349Z,24.78
2023-05-18T02:38:09.429Z,24.81
2023-05-18T02:39:09.464Z,24.81
2023-05-18T02:40:09.523Z,24.81
2023-05-18T02:41:09.571Z,24.82
2023-05-18T02:42:09.631Z,24.82
2023-05-18T02:43:09.649Z,24.81
2023-05-18T02:44:09.711Z,24.79
2023-05-18T02:45:09.746Z,24.79
2023-05-18T02:46:09.823Z,24.79
2023-05-18T02:47:09.845Z,24.81
2023-05-18T02:48:09.935Z,24.79
2023-05-18T02:49:09.926Z,24.81
2023-05-18T02:50:09.988Z,24.79
2023-05-18T02:51:10.017Z,24.79
2023-05-18T02:52:10.061Z,24.78
2023-05-18T02:53:10.057Z,24.75
2023-05-18T02:54:10.120Z,24.79
2023-05-18T02:55:10.171Z,24.78
2023-05-18T02:56:10.187Z,24.79
2023-05-18T02:57:10.240Z,24.78
2023-05-18T02:58:10.312Z,24.81
2023-05-18T02:59:10.323Z,24.79
2023-05-18T03:00:10.444Z,24.75
2023-05-18T03:01:10.514Z,24.79
2023-05-18T03:02:10.490Z,24.78
2023-05-18T03:03:10.567Z,24.77
2023-05-18T03:04:10.546Z,24.77
2023-05-18T03:05:10.596Z,24.75
2023-05-18T03:06:10.625Z,24.77
2023-05-18T03:07:10.692Z,24.78
2023-05-18T03:08:10.712Z,24.77
2023-05-18T03:09:10.704Z,24.78
2023-05-18T03:10:10.756Z,24.78
2023-05-18T03:11:10.838Z,24.75
2023-05-18T03:12:10.901Z,24.78
2023-05-18T03:13:10.967Z,24.77
2023-05-18T03:14:10.997Z,24.77
2023-05-18T03:15:11.088Z,24.78
2023-05-18T03:16:11.234Z,24.78
2023-05-18T03:17:11.250Z,24.77
2023-05-18T03:18:11.343Z,24.75
2023-05-18T03:19:11.427Z,24.77
2023-05-18T03:20:11.406Z,24.75
2023-05-18T03:21:11.433Z,24.77
2023-05-18T03:22:11.517Z,24.77
2023-05-18T03:23:11.560Z,24.75
2023-05-18T03:24:11.592Z,24.78
2023-05-18T03:25:11.677Z,24.75
2023-05-18T03:26:11.822Z,24.74
2023-05-18T03:27:11.726Z,24.75
2023-05-18T03:28:11.792Z,24.77
2023-05-18T03:29:11.858Z,24.77
2023-05-18T03:30:11.886Z,24.74
2023-05-18T03:31:11.951Z,24.75
2023-05-18T03:32:11.922Z,24.72
2023-05-18T03:33:12.077Z,24.74
2023-05-18T03:34:12.066Z,24.74
2023-05-18T03:35:12.109Z,24.74
2023-05-18T03:36:12.153Z,24.74
2023-05-18T03:37:12.239Z,24.72
2023-05-18T03:38:12.236Z,24.75
2023-05-18T03:39:12.282Z,24.74
2023-05-18T03:40:12.333Z,24.72
2023-05-18T03:41:12.367Z,24.77
2023-05-18T03:42:12.408Z,24.74
2023-05-18T03:43:12.429Z,24.72
2023-05-18T03:44:12.433Z,24.74
2023-05-18T03:45:12.485Z,24.75
2023-05-18T03:46:12.526Z,24.74
2023-05-18T03:47:12.474Z,24.74
2023-05-18T03:48:12.558Z,24.72
2023-05-18T03:49:12.496Z,24.72
2023-05-18T03:50:12.566Z,24.74
2023-05-18T03:51:12.561Z,24.74
2023-05-18T03:52:12.591Z,24.72
2023-05-18T03:53:12.606Z,24.72
2023-05-18T03:54:12.618Z,24.74
2023-05-18T03:55:12.630Z,24.72
2023-05-18T03:56:12.666Z,24.71
2023-05-18T03:57:12.715Z,24.72
2023-05-18T03:58:12.757Z,24.74
2023-05-18T03:59:12.744Z,24.72
2023-05-18T04:00:12.787Z,24.71
2023-05-18T04:01:12.779Z,24.72
2023-05-18T04:02:12.832Z,24.72
2023-05-18T04:03:13.665Z,24.72
2023-05-18T04:04:12.853Z,24.74
2023-05-18T04:05:12.843Z,24.71
2023-05-18T04:06:12.833Z,24.72
2023-05-18T04:07:15.361Z,24.72
2023-05-18T04:08:13.117Z,24.72
2023-05-18T04:09:13.091Z,24.77
2023-05-18T04:10:13.150Z,24.72
2023-05-18T04:11:13.162Z,24.72
2023-05-18T04:12:13.177Z,24.71
2023-05-18T04:13:13.198Z,24.71
2023-05-18T04:14:13.194Z,24.71
2023-05-18T04:15:13.204Z,24.72
2023-05-18T04:16:13.352Z,24.71
2023-05-18T04:17:13.264Z,24.74
2023-05-18T04:18:13.357Z,24.70
2023-05-18T04:19:13.376Z,24.71
2023-05-18T04:20:13.411Z,24.72
2023-05-18T04:21:13.360Z,24.71
2023-05-18T04:22:13.360Z,24.72
2023-05-18T04:23:13.350Z,24.71
2023-05-18T04:24:13.379Z,24.72
2023-05-18T04:25:13.388Z,24.71
2023-05-18T04:26:13.371Z,24.71
2023-05-18T04:27:13.369Z,24.72
2023-05-18T04:28:13.385Z,24.70
2023-05-18T04:29:13.513Z,24.70
2023-05-18T04:30:13.532Z,24.71
2023-05-18T04:31:13.413Z,24.68
2023-05-18T04:32:13.414Z,24.71
2023-05-18T04:33:13.524Z,24.71
2023-05-18T04:34:13.435Z,24.70
2023-05-18T04:35:13.427Z,24.68
2023-05-18T04:36:13.474Z,24.71
2023-05-18T04:37:13.487Z,24.70
2023-05-18T04:38:13.468Z,24.70
2023-05-18T04:39:13.531Z,24.71
2023-05-18T04:40:13.532Z,24.71
2023-05-18T04:41:13.553Z,24.71
2023-05-18T04:42:13.572Z,24.70
2023-05-18T04:43:13.561Z,24.71
2023-05-18T04:44:13.573Z,24.71
2023-05-18T04:45:13.590Z,24.67
2023-05-18T04:46:13.638Z,24.68
2023-05-18T04:47:13.663Z,24.70
2023-05-18T04:48:13.678Z,24.67
2023-05-18T04:49:13.647Z,24.70
2023-05-18T04:50:13.687Z,24.70
2023-05-18T04:51:13.642Z,24.68
2023-05-18T04:52:13.640Z,24.67
2023-05-18T04:53:13.652Z,24.70
2023-05-18T04:54:13.672Z,24.68
2023-05-18T04:55:13.658Z,24.68
2023-05-18T04:56:13.660Z,24.67
2023-05-18T04:57:13.636Z,24.70
2023-05-18T04:58:13.645Z,24.68
2023-05-18T04:59:13.629Z,24.70
2023-05-18T05:00:13.653Z,24.71
2023-05-18T05:01:13.687Z,24.70
2023-05-18T05:02:13.729Z,24.70
2023-05-18T05:03:13.696Z,24.70
2023-05-18T05:04:13.706Z,24.70
2023-05-18T05:05:13.683Z,24.72
2023-05-18T05:06:13.697Z,24.70
2023-05-18T05:07:13.685Z,24.71
2023-05-18T05:08:13.698Z,24.72
2023-05-18T05:09:13.714Z,24.72
2023-05-18T05:10:13.705Z,24.71
2023-05-18T05:11:13.729Z,24.72
2023-05-18T05:12:13.716Z,24.71
2023-05-18T05:13:13.730Z,24.72
2023-05-18T05:14:13.753Z,24.75
2023-05-18T05:15:13.736Z,24.72
2023-05-18T05:16:13.799Z,24.74
2023-05-18T05:17:13.754Z,24.74
2023-05-18T05:18:13.895Z,24.74
2023-05-18T05:19:13.796Z,24.74
2023-05-18T05:20:15.608Z,24.75
2023-05-18T05:21:13.849Z,24.72
2023-05-18T05:22:13.856Z,24.75
2023-05-18T05:23:13.929Z,24.75
2023-05-18T05:24:13.901Z,24.75
2023-05-18T05:25:13.950Z,24.75
2023-05-18T05:26:13.998Z,24.75
2023-05-18T05:27:14.034Z,24.74
2023-05-18T05:28:14.079Z,24.78
2023-05-18T05:29:14.167Z,24.77
2023-05-18T05:30:14.225Z,24.81
2023-05-18T05:31:14.256Z,24.77
2023-05-18T05:32:14.265Z,24.77
2023-05-18T05:33:14.361Z,24.79
2023-05-18T05:34:14.368Z,24.79
2023-05-18T05:35:14.391Z,24.77
2023-05-18T05:36:14.443Z,24.79
2023-05-18T05:37:14.478Z,24.79
2023-05-18T05:38:14.529Z,24.82
2023-05-18T05:39:14.584Z,24.79
2023-05-18T05:40:14.631Z,24.81
2023-05-18T05:41:14.674Z,24.84
2023-05-18T05:42:14.698Z,24.82
2023-05-18T05:43:14.928Z,24.82
2023-05-18T05:44:14.822Z,24.85
2023-05-18T05:45:14.919Z,24.85
2023-05-18T05:46:14.966Z,24.84
2023-05-18T05:47:15.040Z,24.88
2023-05-18T05:48:15.087Z,24.87
2023-05-18T05:49:15.273Z,24.87
2023-05-18T05:50:15.211Z,24.85
2023-05-18T05:51:15.265Z,24.88
2023-05-18T05:52:15.318Z,24.89
2023-05-18T05:53:15.390Z,24.88
2023-05-18T05:54:15.444Z,24.92
2023-05-18T05:55:15.534Z,24.88
2023-05-18T05:56:15.570Z,24.89
2023-05-18T05:57:15.643Z,24.89
2023-05-18T05:58:15.704Z,24.95
2023-05-18T05:59:15.761Z,24.91
2023-05-18T06:00:15.807Z,24.91
2023-05-18T06:01:15.880Z,24.92
2023-05-18T06:02:16.027Z,24.91
2023-05-18T06:03:16.041Z,24.92
2023-05-18T06:04:16.117Z,24.92
2023-05-18T06:05:16.170Z,24.91
2023-05-18T06:06:16.192Z,24.91
2023-05-18T06:07:16.282Z,24.94
2023-05-18T06:08:16.336Z,24.94
2023-05-18T06:09:16.408Z,24.94
2023-05-18T06:10:16.470Z,24.92
2023-05-18T06:11:16.521Z,24.94
2023-05-18T06:12:16.596Z,24.92
2023-05-18T06:13:16.646Z,24.94
2023-05-18T06:14:16.715Z,24.95
2023-05-18T06:15:16.799Z,24.94
2023-05-18T06:16:16.899Z,24.95
2023-05-18T06:17:16.910Z,24.95
2023-05-18T06:18:17.042Z,24.95
2023-05-18T06:19:17.081Z,24.97
2023-05-18T06:20:17.106Z,24.97
2023-05-18T06:21:17.145Z,24.95
2023-05-18T06:22:17.199Z,24.98
2023-05-18T06:23:17.284Z,24.95
2023-05-18T06:24:17.357Z,25.01
2023-05-18T06:25:17.369Z,24.98
2023-05-18T06:26:17.421Z,25.01
2023-05-18T06:27:17.485Z,25.01
2023-05-18T06:28:17.573Z,24.99
2023-05-18T06:29:17.605Z,25.01
2023-05-18T06:30:17.670Z,24.99
2023-05-18T06:31:17.753Z,25.01
2023-05-18T06:32:17.856Z,25.02
2023-05-18T06:33:18.039Z,25.02
2023-05-18T06:34:17.931Z,25.04
2023-05-18T06:35:17.981Z,25.04
2023-05-18T06:36:18.025Z,25.04
2023-05-18T06:37:18.208Z,25.04
2023-05-18T06:38:18.140Z,25.04
2023-05-18T06:39:18.230Z,25.04
2023-05-18T06:40:18.280Z,25.04
2023-05-18T06:41:18.366Z,25.05
2023-05-18T06:42:18.412Z,25.07
2023-05-18T06:43:18.480Z,25.05
2023-05-18T06:44:18.504Z,25.08
2023-05-18T06:45:18.578Z,25.07
2023-05-18T06:46:18.655Z,25.08
2023-05-18T06:47:18.679Z,25.07
2023-05-18T06:48:18.762Z,25.05
2023-05-18T06:49:18.812Z,25.08
2023-05-18T06:50:18.859Z,25.11
2023-05-18T06:51:18.908Z,25.09
2023-05-18T06:52:18.967Z,25.11
2023-05-18T06:53:19.043Z,25.09
2023-05-18T06:54:19.102Z,25.09
2023-05-18T06:55:19.136Z,25.11
2023-05-18T06:56:19.193Z,25.11
2023-05-18T06:57:19.242Z,25.14
2023-05-18T06:58:19.298Z,25.11
2023-05-18T06:59:19.338Z,25.11
2023-05-18T07:00:19.402Z,25.11
2023-05-18T07:01:19.481Z,25.12
2023-05-18T07:02:19.488Z,25.12
2023-05-18T07:03:19.727Z,25.14
2023-05-18T07:04:19.580Z,25.15
2023-05-18T07:05:19.634Z,25.15
2023-05-18T07:06:19.675Z,25.16
2023-05-18T07:07:19.739Z,25.16
2023-05-18T07:08:19.823Z,25.16
2023-05-18T07:09:19.863Z,25.15
2023-05-18T07:10:19.881Z,25.15
2023-05-18T07:11:20.662Z,25.18
2023-05-18T07:12:19.970Z,25.19
2023-05-18T07:13:20.016Z,25.18
2023-05-18T07:14:20.111Z,25.18
2023-05-18T07:15:20.153Z,25.21
2023-05-18T07:16:20.254Z,25.19
2023-05-18T07:17:20.211Z,25.21
2023-05-18T07:18:20.295Z,25.19
2023-05-18T07:19:20.539Z,25.21
2023-05-18T07:20:20.452Z,25.21
2023-05-18T07:21:20.398Z,25.21
2023-05-18T07:22:20.447Z,25.21
2023-05-18T07:23:20.530Z,25.19
2023-05-18T07:24:20.544Z,25.19
2023-05-18T07:25:20.631Z,25.22
2023-05-18T07:26:20.685Z,25.19
2023-05-18T07:27:20.713Z,25.21
2023-05-18T07:28:20.753Z,25.22
2023-05-18T07:29:20.848Z,25.19
2023-05-18T07:30:20.850Z,25.21
2023-05-18T07:31:20.935Z,25.19
2023-05-18T07:32:20.941Z,25.21
2023-05-18T07:33:21.072Z,25.23
2023-05-18T07:34:21.044Z,25.22
2023-05-18T07:35:21.099Z,25.21
2023-05-18T07:36:21.133Z,25.21
2023-05-18T07:37:21.186Z,25.21
2023-05-18T07:38:21.230Z,25.22
2023-05-18T07:39:21.310Z,25.22
2023-05-18T07:40:21.352Z,25.22
2023-05-18T07:41:21.396Z,25.22
2023-05-18T07:42:21.455Z,25.21
2023-05-18T07:43:21.499Z,25.21
2023-05-18T07:44:21.532Z,25.22
2023-05-18T07:45:21.567Z,25.23
2023-05-18T07:46:21.683Z,25.23
2023-05-18T07:47:21.665Z,25.22
2023-05-18T07:48:21.721Z,25.23
2023-05-18T07:49:21.765Z,25.23
2023-05-18T07:50:21.880Z,25.23
2023-05-18T07:51:21.848Z,25.26
2023-05-18T07:52:21.908Z,25.23
2023-05-18T07:53:21.949Z,25.26
2023-05-18T07:54:22.000Z,25.26
2023-05-18T07:55:22.139Z,25.26
2023-05-18T07:56:22.085Z,25.26
2023-05-18T07:57:22.153Z,25.28
2023-05-18T07:58:22.190Z,25.28
2023-05-18T07:59:22.248Z,25.28
2023-05-18T08:00:22.361Z,25.29
2023-05-18T08:01:22.326Z,25.29
2023-05-18T08:02:22.394Z,25.30
2023-05-18T08:03:22.477Z,25.29
2023-05-18T08:04:22.575Z,25.33
2023-05-18T08:05:22.536Z,25.32
2023-05-18T08:06:22.562Z,25.32
2023-05-18T08:07:22.604Z,25.32
2023-05-18T08:08:22.655Z,25.36
2023-05-18T08:09:22.683Z,25.33
2023-05-18T08:10:22.699Z,25.36
2023-05-18T08:11:22.734Z,25.35
2023-05-18T08:12:22.767Z,25.33
2023-05-18T08:13:22.842Z,25.36
2023-05-18T08:14:22.852Z,25.39
2023-05-18T08:15:22.901Z,25.40
2023-05-18T08:16:23.042Z,25.40
2023-05-18T08:17:23.004Z,25.38
2023-05-18T08:18:23.029Z,25.39
2023-05-18T08:19:23.102Z,25.39
2023-05-18T08:20:23.099Z,25.42
2023-05-18T08:21:23.128Z,25.42
2023-05-18T08:22:23.161Z,25.42
2023-05-18T08:23:23.211Z,25.46
2023-05-18T08:24:23.235Z,25.43
2023-05-18T08:25:23.303Z,25.45
2023-05-18T08:26:23.336Z,25.45
2023-05-18T08:27:23.396Z,25.45
2023-05-18T08:28:23.425Z,25.48
2023-05-18T08:29:23.478Z,25.45
2023-05-18T08:30:23.511Z,25.46
2023-05-18T08:31:23.580Z,25.48
2023-05-18T08:32:23.760Z,25.48
2023-05-18T08:33:23.627Z,25.49
2023-05-18T08:34:23.685Z,25.48
2023-05-18T08:35:24.169Z,25.46
2023-05-18T08:36:23.741Z,25.46
2023-05-18T08:37:23.780Z,25.49
2023-05-18T08:38:23.802Z,25.50
2023-05-18T08:39:23.853Z,25.49
2023-05-18T08:40:23.914Z,25.52
2023-05-18T08:41:23.925Z,25.52
2023-05-18T08:42:27.595Z,25.52
2023-05-18T08:43:24.945Z,25.52
2023-05-18T08:44:23.911Z,25.53
2023-05-18T08:45:23.921Z,25.53
2023-05-18T08:46:23.902Z,25.54
2023-05-18T08:47:23.933Z,25.52
2023-05-18T08:48:26.401Z,25.52
2023-05-18T08:49:23.909Z,25.54
2023-05-18T08:50:24.659Z,25.56
2023-05-18T08:51:23.899Z,25.56
2023-05-18T08:52:23.869Z,25.57
2023-05-18T08:53:23.868Z,25.54
2023-05-18T08:54:23.890Z,25.57
2023-05-18T08:55:23.842Z,25.57
2023-05-18T08:56:23.856Z,25.57
2023-05-18T08:57:23.839Z,25.59
2023-05-18T08:58:23.847Z,25.59
2023-05-18T08:59:23.828Z,25.60
2023-05-18T09:00:24.681Z,25.62
2023-05-18T09:01:23.853Z,25.59
2023-05-18T09:02:23.883Z,25.60
2023-05-18T09:03:23.802Z,25.57
2023-05-18T09:04:23.817Z,25.60
2023-05-18T09:05:23.961Z,25.63
2023-05-18T09:06:24.229Z,25.60
2023-05-18T09:07:23.756Z,25.60
2023-05-18T09:08:23.791Z,25.63
2023-05-18T09:09:23.788Z,25.63
2023-05-18T09:10:23.758Z,25.60
2023-05-18T09:11:23.745Z,25.60
2023-05-18T09:12:24.766Z,25.60
2023-05-18T09:13:23.755Z,25.59
2023-05-18T09:14:23.736Z,25.62
2023-05-18T09:15:23.725Z,25.66
2023-05-18T09:16:23.851Z,25.62
2023-05-18T09:17:23.853Z,25.63
2023-05-18T09:18:26.179Z,25.66
2023-05-18T09:19:23.735Z,25.65
2023-05-18T09:20:23.717Z,25.65
2023-05-18T09:21:23.654Z,25.66
2023-05-18T09:22:23.662Z,25.63
2023-05-18T09:23:23.656Z,25.65
2023-05-18T09:24:24.867Z,25.65
2023-05-18T09:25:23.646Z,25.67
2023-05-18T09:26:23.653Z,25.67
2023-05-18T09:27:23.663Z,25.66
2023-05-18T09:28:23.625Z,25.65
2023-05-18T09:29:23.640Z,25.69
2023-05-18T09:30:23.607Z,25.69
2023-05-18T09:31:23.616Z,25.67
2023-05-18T09:32:23.605Z,25.67
2023-05-18T09:33:23.745Z,25.67
2023-05-18T09:34:23.571Z,25.70
2023-05-18T09:35:23.568Z,25.70
2023-05-18T09:36:23.545Z,25.66
2023-05-18T09:37:23.542Z,25.70
2023-05-18T09:38:23.559Z,25.69
2023-05-18T09:39:23.570Z,25.69
2023-05-18T09:40:23.556Z,25.69
2023-05-18T09:41:23.544Z,25.67
2023-05-18T09:42:24.277Z,25.69
2023-05-18T09:43:23.520Z,25.69
2023-05-18T09:44:23.501Z,25.66
2023-05-18T09:45:23.522Z,25.69
2023-05-18T09:46:23.503Z,25.69
2023-05-18T09:47:23.566Z,25.67
2023-05-18T09:48:25.289Z,25.69
2023-05-18T09:49:23.475Z,25.70
2023-05-18T09:50:23.490Z,25.70
2023-05-18T09:51:23.445Z,25.69
2023-05-18T09:52:23.477Z,25.70
2023-05-18T09:53:23.462Z,25.70
2023-05-18T09:54:24.491Z,25.72
2023-05-18T09:55:23.456Z,25.72
2023-05-18T09:56:23.414Z,25.70
2023-05-18T09:57:23.434Z,25.69
2023-05-18T09:58:23.446Z,25.72
2023-05-18T09:59:23.397Z,25.73
2023-05-18T10:00:25.440Z,25.72
2023-05-18T10:01:23.485Z,25.73
2023-05-18T10:02:23.464Z,25.73
2023-05-18T10:03:23.405Z,25.72
2023-05-18T10:04:23.398Z,25.75
2023-05-18T10:05:23.396Z,25.72
2023-05-18T10:06:23.436Z,25.73
2023-05-18T10:07:23.436Z,25.75
2023-05-18T10:08:23.452Z,25.70
2023-05-18T10:09:23.466Z,25.75
2023-05-18T10:10:23.490Z,25.75
2023-05-18T10:11:23.483Z,25.73
2023-05-18T10:12:23.486Z,25.76
2023-05-18T10:13:23.502Z,25.77
2023-05-18T10:14:23.541Z,25.77
2023-05-18T10:15:23.572Z,25.77
2023-05-18T10:16:23.605Z,25.75
2023-05-18T10:17:23.568Z,25.77
2023-05-18T10:18:23.665Z,25.76
2023-05-18T10:19:23.698Z,25.79
2023-05-18T10:20:23.619Z,25.79
2023-05-18T10:21:23.666Z,25.79
2023-05-18T10:22:23.668Z,25.79
2023-05-18T10:23:23.669Z,25.77
2023-05-18T10:24:23.684Z,25.79
2023-05-18T10:25:23.704Z,25.80
2023-05-18T10:26:23.717Z,25.80
2023-05-18T10:27:23.734Z,25.80
2023-05-18T10:28:23.735Z,25.80
2023-05-18T10:29:23.750Z,25.80
2023-05-18T10:30:23.725Z,25.81
2023-05-18T10:31:23.775Z,25.84
2023-05-18T10:32:23.799Z,25.80
2023-05-18T10:33:29.015Z,25.84
2023-05-18T10:34:24.766Z,25.84
2023-05-18T10:35:23.755Z,25.84
2023-05-18T10:36:23.735Z,25.83
2023-05-18T10:37:23.750Z,25.86
2023-05-18T10:38:23.732Z,25.84
2023-05-18T10:39:23.742Z,25.86
2023-05-18T10:40:23.725Z,25.86
2023-05-18T10:41:23.740Z,25.86
2023-05-18T10:42:23.746Z,25.87
2023-05-18T10:43:24.157Z,25.86
2023-05-18T10:44:23.676Z,25.87
2023-05-18T10:45:23.721Z,25.90
2023-05-18T10:46:23.721Z,25.91
2023-05-18T10:47:23.916Z,25.90
2023-05-18T10:48:23.720Z,25.89
2023-05-18T10:49:23.695Z,25.90
2023-05-18T10:50:23.660Z,25.90
2023-05-18T10:51:23.659Z,25.90
2023-05-18T10:52:23.661Z,25.93
2023-05-18T10:53:23.728Z,25.91
2023-05-18T10:54:23.632Z,25.90
2023-05-18T10:55:23.607Z,25.91
2023-05-18T10:56:23.623Z,25.94
2023-05-18T10:57:23.613Z,25.94
2023-05-18T10:58:23.587Z,25.96
2023-05-18T10:59:23.606Z,25.96
2023-05-18T11:00:23.625Z,25.96
2023-05-18T11:01:23.607Z,25.97
2023-05-18T11:02:23.680Z,25.99
2023-05-18T11:03:23.556Z,25.97
2023-05-18T11:04:23.594Z,25.99
2023-05-18T11:05:23.732Z,25.94
2023-05-18T11:06:23.566Z,25.97
2023-05-18T11:07:23.552Z,26.01
2023-05-18T11:08:23.538Z,25.97
2023-05-18T11:09:23.556Z,26.00
2023-05-18T11:10:23.539Z,26.01
2023-05-18T11:11:23.513Z,26.01
2023-05-18T11:12:23.517Z,26.01
2023-05-18T11:13:23.515Z,25.99
2023-05-18T11:14:23.528Z,26.01
2023-05-18T11:15:23.477Z,26.01
2023-05-18T11:16:23.610Z,26.03
2023-05-18T11:17:23.478Z,26.04
2023-05-18T11:18:23.466Z,26.03
2023-05-18T11:19:23.567Z,26.04
2023-05-18T11:20:23.476Z,26.04
2023-05-18T11:21:23.422Z,26.01
2023-05-18T11:22:23.443Z,26.01
2023-05-18T11:23:23.427Z,26.05
2023-05-18T11:24:23.428Z,26.04
2023-05-18T11:25:23.405Z,26.04
2023-05-18T11:26:23.419Z,26.04
2023-05-18T11:27:23.403Z,26.04
2023-05-18T11:28:23.384Z,26.07
2023-05-18T11:29:23.411Z,26.08
2023-05-18T11:30:23.384Z,26.05
2023-05-18T11:31:23.393Z,26.08
2023-05-18T11:32:29.394Z,26.05
2023-05-18T11:33:24.425Z,26.07
2023-05-18T11:34:23.350Z,26.07
2023-05-18T11:35:23.357Z,26.08
2023-05-18T11:36:23.332Z,26.07
2023-05-18T11:37:23.359Z,26.08
2023-05-18T11:38:23.344Z,26.11
2023-05-18T11:39:23.326Z,26.08
2023-05-18T11:40:23.326Z,26.10
2023-05-18T11:41:23.477Z,26.10
2023-05-18T11:42:23.308Z,26.10
2023-05-18T11:43:23.308Z,26.14
2023-05-18T11:44:23.317Z,26.11
2023-05-18T11:45:23.304Z,26.13
2023-05-18T11:46:23.273Z,26.11
2023-05-18T11:47:24.268Z,26.13
2023-05-18T11:48:23.319Z,26.13
2023-05-18T11:49:23.239Z,26.11
2023-05-18T11:50:23.234Z,26.14
2023-05-18T11:51:23.251Z,26.16
2023-05-18T11:52:23.245Z,26.14
2023-05-18T11:53:23.218Z,26.16
2023-05-18T11:54:23.200Z,26.16
2023-05-18T11:55:23.237Z,26.17
2023-05-18T11:56:23.196Z,26.20
2023-05-18T11:57:23.281Z,26.18
2023-05-18T11:58:23.184Z,26.18
2023-05-18T11:59:23.172Z,26.20
2023-05-18T12:00:23.179Z,26.21
2023-05-18T12:01:23.157Z,26.23
2023-05-18T12:02:23.202Z,26.23
2023-05-18T12:03:23.268Z,26.26
2023-05-18T12:04:23.209Z,26.24
2023-05-18T12:05:23.166Z,26.26
2023-05-18T12:06:23.142Z,26.28
2023-05-18T12:07:23.121Z,26.28
2023-05-18T12:08:23.107Z,26.30
2023-05-18T12:09:23.145Z,26.27
2023-05-18T12:10:23.108Z,26.31
2023-05-18T12:11:23.085Z,26.32
2023-05-18T12:12:23.082Z,26.30
2023-05-18T12:13:23.097Z,26.32
2023-05-18T12:14:23.085Z,26.32
2023-05-18T12:15:23.141Z,26.34
2023-05-18T12:16:23.125Z,26.34
2023-05-18T12:17:23.049Z,26.35
2023-05-18T12:18:23.050Z,26.38
2023-05-18T12:19:23.223Z,26.40
2023-05-18T12:20:23.068Z,26.41
2023-05-18T12:21:23.026Z,26.42
2023-05-18T12:22:23.069Z,26.42
2023-05-18T12:23:23.036Z,26.44
2023-05-18T12:24:23.011Z,26.47
2023-05-18T12:25:23.004Z,26.47
2023-05-18T12:26:22.981Z,26.47
2023-05-18T12:27:23.046Z,26.44
2023-05-18T12:28:22.994Z,26.45
2023-05-18T12:29:23.007Z,26.48
2023-05-18T12:30:23.024Z,26.51
2023-05-18T12:31:23.075Z,26.48
2023-05-18T12:32:23.088Z,26.51
2023-05-18T12:33:23.105Z,26.48
2023-05-18T12:34:23.131Z,26.50
2023-05-18T12:35:23.159Z,26.54
2023-05-18T12:36:23.197Z,26.54
2023-05-18T12:37:28.005Z,26.51
2023-05-18T12:38:24.249Z,26.52
2023-05-18T12:39:23.255Z,26.52
2023-05-18T12:40:23.242Z,26.55
2023-05-18T12:41:23.210Z,26.52
2023-05-18T12:42:23.218Z,26.51
2023-05-18T12:43:23.221Z,26.54
2023-05-18T12:44:23.183Z,26.51
2023-05-18T12:45:23.209Z,26.52
2023-05-18T12:46:23.380Z,26.51
2023-05-18T12:47:23.172Z,26.52
2023-05-18T12:48:23.276Z,26.54
2023-05-18T12:49:23.333Z,26.54
2023-05-18T12:50:23.358Z,26.55
2023-05-18T12:51:23.408Z,26.54
2023-05-18T12:52:23.452Z,26.54